createdAt,value
2022-09-23T00:00:36.244Z,100224.59
2022-09-23T00:04:52.228Z,100217.22
2022-09-23T00:09:08.183Z,100223.63
2022-09-23T00:13:25.336Z,100223.56
2022-09-23T00:17:41.500Z,100219.69
2022-09-23T00:21:57.508Z,100215.44
2022-09-23T00:26:15.965Z,100221.56
2022-09-23T00:30:32.558Z,100215.00
2022-09-23T00:34:48.601Z,100211.66
2022-09-23T00:39:04.808Z,100204.50
2022-09-23T00:43:37.053Z,100200.94
2022-09-23T00:48:01.598Z,100204.50
2022-09-23T00:52:20.686Z,100198.16
2022-09-23T00:56:37.456Z,100191.12
2022-09-23T01:00:54.554Z,100193.41
2022-09-23T01:05:10.904Z,100198.84
2022-09-23T01:09:26.927Z,100189.78
2022-09-23T01:14:04.491Z,100194.34
2022-09-23T01:18:26.997Z,100198.44
2022-09-23T01:22:51.786Z,100192.06
2022-09-23T01:27:30.826Z,100187.62
2022-09-23T01:32:00.326Z,100178.84
2022-09-23T01:36:24.595Z,100182.78
2022-09-23T01:41:14.168Z,100179.41
2022-09-23T01:45:38.680Z,100183.25
2022-09-23T01:50:28.035Z,100184.72
2022-09-23T01:54:55.387Z,100186.16
2022-09-23T01:59:17.231Z,100183.03
2022-09-23T02:03:49.566Z,100178.94
2022-09-23T02:08:18.634Z,100186.88
2022-09-23T02:12:35.932Z,100181.78
2022-09-23T02:16:55.947Z,100188.47
2022-09-23T02:21:12.896Z,100182.22
2022-09-23T02:26:03.140Z,100174.22
2022-09-23T02:30:27.297Z,100180.84
2022-09-23T02:35:12.515Z,100193.16
2022-09-23T02:39:37.143Z,100189.97
2022-09-23T02:44:00.949Z,100184.47
2022-09-23T02:48:41.552Z,100182.03
2022-09-23T02:52:58.359Z,100184.84
2022-09-23T02:57:14.715Z,100189.81
2022-09-23T03:01:33.914Z,100191.47
2022-09-23T03:05:57.180Z,100197.84
2022-09-23T03:10:42.115Z,100196.78
2022-09-23T03:15:25.996Z,100203.78
2022-09-23T03:19:44.693Z,100191.94
2022-09-23T03:24:02.846Z,100193.91
2022-09-23T03:28:22.210Z,100186.88
2022-09-23T03:32:38.544Z,100187.84
2022-09-23T03:37:11.001Z,100187.34
2022-09-23T03:41:35.085Z,100182.41
2022-09-23T03:45:53.565Z,100183.56
2022-09-23T03:50:09.991Z,100184.06
2022-09-23T03:54:29.837Z,100185.87
2022-09-23T03:58:46.682Z,100188.81
2022-09-23T04:03:02.836Z,100181.75
2022-09-23T04:07:19.291Z,100189.47
2022-09-23T04:11:35.570Z,100190.53
2022-09-23T04:15:51.940Z,100185.69
2022-09-23T04:20:08.237Z,100189.19
2022-09-23T04:24:24.219Z,100196.53
2022-09-23T04:28:40.146Z,100194.19
2022-09-23T04:32:56.096Z,100198.25
2022-09-23T04:37:12.123Z,100197.81
2022-09-23T04:41:28.092Z,100205.38
2022-09-23T04:45:45.077Z,100201.62
2022-09-23T04:50:01.012Z,100208.00
2022-09-23T04:54:17.087Z,100212.03
2022-09-23T04:58:34.650Z,100213.22
2022-09-23T05:02:51.403Z,100204.13
2022-09-23T05:07:07.636Z,100216.00
2022-09-23T05:11:24.504Z,100217.16
2022-09-23T05:15:40.429Z,100216.66
2022-09-23T05:19:58.045Z,100228.31
2022-09-23T05:24:14.060Z,100228.72
2022-09-23T05:28:33.068Z,100240.34
2022-09-23T05:32:49.076Z,100250.56
2022-09-23T05:37:05.509Z,100247.03
2022-09-23T05:41:23.320Z,100241.78
2022-09-23T05:45:39.315Z,100235.94
2022-09-23T05:49:59.953Z,100244.78
2022-09-23T05:54:16.538Z,100244.19
2022-09-23T05:58:32.595Z,100248.44
2022-09-23T06:02:49.450Z,100252.59
2022-09-23T06:07:05.594Z,100245.72
2022-09-23T06:11:21.686Z,100244.81
2022-09-23T06:15:38.386Z,100244.13
2022-09-23T06:19:54.416Z,100246.53
2022-09-23T06:24:13.726Z,100241.28
2022-09-23T06:28:33.077Z,100248.59
2022-09-23T06:32:52.988Z,100251.78
2022-09-23T06:37:17.083Z,100240.03
2022-09-23T06:41:35.407Z,100242.62
2022-09-23T06:45:59.078Z,100240.66
2022-09-23T06:50:15.135Z,100243.75
2022-09-23T06:54:31.569Z,100238.62
2022-09-23T06:58:47.944Z,100251.81
2022-09-23T07:03:08.430Z,100249.59
2022-09-23T07:07:24.683Z,100247.03
2022-09-23T07:11:40.865Z,100234.59
2022-09-23T07:16:02.350Z,100242.66
2022-09-23T07:20:18.799Z,100232.16
2022-09-23T07:24:34.815Z,100223.03
2022-09-23T07:28:55.549Z,100233.19
2022-09-23T07:33:26.210Z,100228.41
2022-09-23T07:37:43.932Z,100232.66
2022-09-23T07:41:59.959Z,100230.94
2022-09-23T07:46:17.842Z,100226.53
2022-09-23T07:50:33.983Z,100224.91
2022-09-23T07:54:49.962Z,100231.47
2022-09-23T07:59:11.494Z,100223.72
2022-09-23T08:03:27.487Z,100232.56
2022-09-23T08:07:43.499Z,100230.37
2022-09-23T08:11:59.962Z,100222.47
2022-09-23T08:16:15.980Z,100234.50
2022-09-23T08:20:48.142Z,100227.66
2022-09-23T08:25:06.589Z,100225.66
2022-09-23T08:29:25.602Z,100220.28
2022-09-23T08:33:41.949Z,100217.50
2022-09-23T08:37:58.081Z,100217.50
2022-09-23T08:42:27.974Z,100214.25
2022-09-23T08:46:52.816Z,100212.97
2022-09-23T08:51:17.823Z,100205.41
2022-09-23T08:55:37.860Z,100195.59
2022-09-23T08:59:54.758Z,100196.06
2022-09-23T09:04:28.057Z,100197.13
2022-09-23T09:08:47.281Z,100188.97
2022-09-23T09:13:37.107Z,100193.19
2022-09-23T09:18:02.506Z,100188.16
2022-09-23T09:22:32.128Z,100183.59
2022-09-23T09:26:48.308Z,100184.09
2022-09-23T09:31:22.258Z,100173.16
2022-09-23T09:36:01.376Z,100173.91
2022-09-23T09:40:17.652Z,100167.84
2022-09-23T09:44:37.367Z,100162.31
2022-09-23T09:49:23.262Z,100154.94
2022-09-23T09:53:39.231Z,100162.31
2022-09-23T09:58:04.150Z,100158.38
2022-09-23T10:02:35.938Z,100147.31
2022-09-23T10:07:24.632Z,100144.56
2022-09-23T10:11:41.406Z,100149.09
2022-09-23T10:16:00.093Z,100148.00
2022-09-23T10:20:16.275Z,100145.91
2022-09-23T10:24:36.433Z,100143.16
2022-09-23T10:28:55.831Z,100142.31
2022-09-23T10:33:27.966Z,100139.38
2022-09-23T10:37:49.531Z,100138.13
2022-09-23T10:42:46.899Z,100129.81
2022-09-23T10:47:24.100Z,100137.59
2022-09-23T10:51:59.401Z,100137.47
2022-09-23T10:56:39.882Z,100128.53
2022-09-23T11:01:20.005Z,100128.84
2022-09-23T11:06:11.394Z,100127.06
2022-09-23T11:10:55.990Z,100129.97
2022-09-23T11:15:42.857Z,100114.72
2022-09-23T11:20:21.969Z,100103.84
2022-09-23T11:24:41.590Z,100095.53
2022-09-23T11:29:17.192Z,100088.63
2022-09-23T11:33:59.703Z,100086.44
2022-09-23T11:38:18.874Z,100086.22
2022-09-23T11:42:45.602Z,100087.28
2022-09-23T11:47:21.303Z,100083.56
2022-09-23T11:51:59.201Z,100084.09
2022-09-23T11:56:36.439Z,100071.97
2022-09-23T12:01:01.273Z,100063.63
2022-09-23T12:05:22.406Z,100054.34
2022-09-23T12:09:58.661Z,100052.88
2022-09-23T12:14:31.120Z,100051.16
2022-09-23T12:19:11.865Z,100049.41
2022-09-23T12:23:49.452Z,100040.59
2022-09-23T12:28:11.798Z,100041.69
2022-09-23T12:32:27.991Z,100019.87
2022-09-23T12:36:44.094Z,100014.44
2022-09-23T12:41:00.613Z,100025.09
2022-09-23T12:45:38.666Z,100017.19
2022-09-23T12:49:56.630Z,100012.53
2022-09-23T12:54:24.433Z,100012.72
2022-09-23T12:58:43.409Z,100004.62
2022-09-23T13:03:19.254Z,99995.97
2022-09-23T13:07:35.513Z,100000.91
2022-09-23T13:11:53.166Z,99998.53
2022-09-23T13:16:34.445Z,99990.66
2022-09-23T13:20:51.839Z,99986.22
2022-09-23T13:25:18.291Z,99985.97
2022-09-23T13:29:55.646Z,100002.06
2022-09-23T13:34:13.893Z,100001.81
2022-09-23T13:38:32.174Z,99997.47
2022-09-23T13:42:53.716Z,99998.75
2022-09-23T13:47:13.723Z,99990.88
2022-09-23T13:51:35.264Z,99994.09
2022-09-23T13:56:07.799Z,99990.38
2022-09-23T14:00:25.479Z,99986.56
2022-09-23T14:04:41.819Z,99988.16
2022-09-23T14:09:00.281Z,99984.84
2022-09-23T14:13:25.909Z,99987.09
2022-09-23T14:18:06.535Z,99979.19
2022-09-23T14:22:28.244Z,99974.91
2022-09-23T14:26:47.549Z,99973.78
2022-09-23T14:31:03.654Z,99973.25
2022-09-23T14:35:38.192Z,99976.91
2022-09-23T14:39:57.783Z,99973.50
2022-09-23T14:44:25.243Z,99968.38
2022-09-23T14:48:41.291Z,99964.66
2022-09-23T14:52:57.338Z,99960.00
2022-09-23T14:57:28.544Z,99959.34
2022-09-23T15:01:44.664Z,99953.47
2022-09-23T15:06:09.201Z,99953.78
2022-09-23T15:10:33.857Z,99953.06
2022-09-23T15:14:55.219Z,99944.03
2022-09-23T15:19:19.085Z,99949.75
2022-09-23T15:23:39.010Z,99942.50
2022-09-23T15:28:16.868Z,99930.53
2022-09-23T15:32:32.824Z,99939.66
2022-09-23T15:36:49.734Z,99930.56
2022-09-23T15:41:07.188Z,99945.47
2022-09-23T15:45:38.652Z,99944.78
2022-09-23T15:49:54.699Z,99937.16
2022-09-23T15:54:13.911Z,99941.41
2022-09-23T15:58:30.097Z,99931.38
2022-09-23T16:02:48.218Z,99928.88
2022-09-23T16:07:05.683Z,99918.13
2022-09-23T16:11:34.032Z,99917.31
2022-09-23T16:15:50.235Z,99921.72
2022-09-23T16:20:06.842Z,99924.47
2022-09-23T16:24:27.919Z,99926.53
2022-09-23T16:28:45.183Z,99931.69
2022-09-23T16:33:02.014Z,99930.97
2022-09-23T16:37:21.474Z,99932.87
2022-09-23T16:41:37.558Z,99937.91
2022-09-23T16:45:54.246Z,99935.69
2022-09-23T16:50:11.663Z,99939.97
2022-09-23T16:54:28.037Z,99947.66
2022-09-23T16:58:44.742Z,99941.63
2022-09-23T17:03:20.388Z,99942.22
2022-09-23T17:07:36.355Z,99950.53
2022-09-23T17:12:09.240Z,99962.84
2022-09-23T17:16:30.300Z,99957.06
2022-09-23T17:20:56.831Z,99957.38
2022-09-23T17:25:12.954Z,99961.09
2022-09-23T17:29:29.280Z,99949.53
2022-09-23T17:33:45.604Z,99945.56
2022-09-23T17:38:01.643Z,99952.06
2022-09-23T17:42:18.534Z,99950.97
2022-09-23T17:46:34.562Z,99965.78
2022-09-23T17:51:02.353Z,99964.91
2022-09-23T17:55:19.296Z,99965.72
2022-09-23T17:59:35.415Z,99977.87
2022-09-23T18:03:59.725Z,99978.66
2022-09-23T18:08:16.163Z,99970.94
2022-09-23T18:12:33.540Z,99977.75
2022-09-23T18:16:51.842Z,99987.25
2022-09-23T18:21:08.643Z,99974.91
2022-09-23T18:25:38.766Z,99980.41
2022-09-23T18:29:55.458Z,99974.53
2022-09-23T18:34:14.066Z,99979.63
2022-09-23T18:38:30.446Z,99982.78
2022-09-23T18:42:47.658Z,99971.63
2022-09-23T18:47:03.721Z,99990.25
2022-09-23T18:51:29.302Z,99995.88
2022-09-23T18:55:45.386Z,99985.78
2022-09-23T19:00:01.604Z,99987.03
2022-09-23T19:04:23.740Z,99999.03
2022-09-23T19:08:41.796Z,99997.53
2022-09-23T19:12:58.082Z,100002.44
2022-09-23T19:17:14.116Z,99998.28
2022-09-23T19:21:38.933Z,100000.75
2022-09-23T19:26:07.057Z,99998.63
2022-09-23T19:30:27.806Z,100001.84
2022-09-23T19:35:01.032Z,99988.63
2022-09-23T19:39:36.973Z,99987.44
2022-09-23T19:44:08.466Z,99997.72
2022-09-23T19:48:25.449Z,99992.19
2022-09-23T19:52:43.502Z,99997.66
2022-09-23T19:57:01.358Z,99991.94
2022-09-23T20:01:17.531Z,99997.06
2022-09-23T20:05:34.619Z,99997.56
2022-09-23T20:09:52.219Z,100006.84
2022-09-23T20:14:10.460Z,100003.03
2022-09-23T20:18:26.841Z,99990.19
2022-09-23T20:22:43.049Z,100000.28
2022-09-23T20:27:11.360Z,100001.09
2022-09-23T20:31:32.344Z,99998.63
2022-09-23T20:35:53.375Z,99995.91
2022-09-23T20:40:10.469Z,99999.47
2022-09-23T20:44:26.556Z,99999.72
2022-09-23T20:48:42.579Z,99994.28
2022-09-23T20:52:58.646Z,99986.09
2022-09-23T20:57:16.389Z,99992.38
2022-09-23T21:01:37.127Z,99988.28
2022-09-23T21:05:53.273Z,99985.81
2022-09-23T21:10:10.609Z,99984.19
2022-09-23T21:14:26.695Z,99988.28
2022-09-23T21:18:43.029Z,99993.09
2022-09-23T21:22:58.954Z,99994.22
2022-09-23T21:27:15.119Z,99995.81
2022-09-23T21:31:36.092Z,99994.41
2022-09-23T21:35:58.547Z,100000.72
2022-09-23T21:40:33.184Z,100001.09
2022-09-23T21:44:49.140Z,99996.91
2022-09-23T21:49:05.290Z,100001.84
2022-09-23T21:53:21.535Z,99996.94
2022-09-23T21:57:38.769Z,100009.22
2022-09-23T22:01:54.755Z,100002.66
2022-09-23T22:06:20.353Z,99994.72
2022-09-23T22:10:37.628Z,99999.66
2022-09-23T22:14:53.539Z,100004.88
2022-09-23T22:19:10.983Z,100001.25
2022-09-23T22:23:26.971Z,99997.38
2022-09-23T22:28:02.988Z,99998.31
2022-09-23T22:32:40.617Z,99994.97
2022-09-23T22:36:57.833Z,100000.53
2022-09-23T22:41:15.315Z,99987.94
2022-09-23T22:45:31.282Z,100004.19
2022-09-23T22:49:47.986Z,100000.28
2022-09-23T22:54:04.087Z,100003.37
2022-09-23T22:58:31.621Z,100008.72
2022-09-23T23:02:49.238Z,100003.59
2022-09-23T23:07:06.134Z,100000.34
2022-09-23T23:11:22.149Z,100005.09
2022-09-23T23:15:41.323Z,100004.22
2022-09-23T23:19:58.082Z,100000.03
2022-09-23T23:24:19.682Z,100008.06
2022-09-23T23:28:35.645Z,99995.09
2022-09-23T23:32:52.054Z,99987.16
2022-09-23T23:37:07.991Z,99984.19
2022-09-23T23:41:24.030Z,99994.25
2022-09-23T23:45:40.007Z,99988.78
2022-09-23T23:49:55.944Z,99986.47
2022-09-23T23:54:12.505Z,99976.38
2022-09-23T23:58:29.261Z,99983.53
